Terminal Aerodrome Forecast
Issued by NWS

Home | Current Version | Previous Version | Graphics & Text | Print | Product List | Glossary On
Versions: 1 2 3 4 5 6 7 8 9 10 11 12 13 14 15
000
FTUS43 KMPX 200500
TAFAXN
TAF
KAXN 200525Z 2006/2106 21003KT P6SM SCT250
     FM201200 08003KT P6SM SKC
     FM201800 13006KT P6SM FEW100 SCT250
     FM210200 12007KT P6SM SCT100 BKN200=

USA.gov is the U.S. government's official web portal to all federal, state and local government web resources and services.